Terminal Aerodrome Forecast
Issued by NWS Topeka, KS

Home | Current Version | Previous Version | Text Only | Print | Product List | Glossary On
Versions: 1 2 3 4 5 6 7 8 9 10 11 12 13 14 15 16 17 18 19 20 21 22 23 24 25
611
FTUS43 KTOP 261722
TAFTOP
TAF
KTOP 261722Z 2618/2718 VRB03KT P6SM BKN020
     FM270100 03007KT P6SM -RA OVC020
     FM270300 03006KT 4SM -RA BR OVC008
     FM271100 35006KT 3SM BR BKN008
     FM271600 35006KT P6SM BKN012=

USA.gov is the U.S. government's official web portal to all federal, state and local government web resources and services.